sensor_id;sensor_type;location;lat;lon;timestamp;P1;P4;P2;P0;N10;N4;N25;N1;N05;TS
66834;SPS30;53743;51.100;5.874;2023-03-14T00:00:39;1.60;1.50;1.29;0.98;7.89;7.87;7.83;7.55;6.26;0.63
66834;SPS30;53743;51.100;5.874;2023-03-14T00:01:44;1.53;1.43;1.24;0.95;7.59;7.58;7.53;7.28;6.04;0.63
66834;SPS30;53743;51.100;5.874;2023-03-14T00:02:46;1.59;1.48;1.28;0.98;7.81;7.80;7.75;7.49;6.20;0.64
66834;SPS30;53743;51.100;5.874;2023-03-14T00:03:52;1.33;1.25;1.08;0.83;6.63;6.62;6.58;6.36;5.27;0.63
66834;SPS30;53743;51.100;5.874;2023-03-14T00:04:54;1.50;1.40;1.21;0.94;7.50;7.49;7.44;7.20;5.99;0.63
66834;SPS30;53743;51.100;5.874;2023-03-14T00:05:56;1.37;1.28;1.11;0.85;6.81;6.80;6.76;6.53;5.42;0.63
66834;SPS30;53743;51.100;5.874;2023-03-14T00:06:57;1.35;1.26;1.09;0.83;6.67;6.66;6.62;6.39;5.30;0.63
66834;SPS30;53743;51.100;5.874;2023-03-14T00:07:58;1.37;1.28;1.10;0.83;6.67;6.66;6.62;6.38;5.27;0.64
66834;SPS30;53743;51.100;5.874;2023-03-14T00:09:00;1.29;1.21;1.04;0.80;6.38;6.37;6.33;6.12;5.07;0.62
66834;SPS30;53743;51.100;5.874;2023-03-14T00:10:02;1.25;1.17;1.01;0.78;6.20;6.20;6.16;5.95;4.94;0.62
66834;SPS30;53743;51.100;5.874;2023-03-14T00:11:05;1.58;1.48;1.28;0.98;7.83;7.82;7.77;7.50;6.22;0.63
66834;SPS30;53743;51.100;5.874;2023-03-14T00:12:07;1.60;1.49;1.28;0.97;7.75;7.74;7.69;7.41;6.12;0.64
66834;SPS30;53743;51.100;5.874;2023-03-14T00:13:10;1.01;0.95;0.81;0.62;4.96;4.96;4.92;4.75;3.93;0.64
66834;SPS30;53743;51.100;5.874;2023-03-14T00:14:10;1.25;1.17;1.01;0.77;6.19;6.18;6.14;5.93;4.91;0.63
66834;SPS30;53743;51.100;5.874;2023-03-14T00:15:13;1.24;1.16;1.00;0.76;6.06;6.06;6.02;5.81;4.80;0.63
66834;SPS30;53743;51.100;5.874;2023-03-14T00:16:14;1.35;1.26;1.09;0.84;6.71;6.70;6.66;6.44;5.34;0.63
66834;SPS30;53743;51.100;5.874;2023-03-14T00:17:17;0.94;0.88;0.77;0.59;4.73;4.73;4.70;4.54;3.78;0.62
66834;SPS30;53743;51.100;5.874;2023-03-14T00:18:17;1.24;1.16;1.00;0.77;6.18;6.17;6.13;5.93;4.93;0.62
66834;SPS30;53743;51.100;5.874;2023-03-14T00:19:20;1.15;1.08;0.93;0.72;5.76;5.75;5.72;5.53;4.60;0.63
66834;SPS30;53743;51.100;5.874;2023-03-14T00:20:21;0.91;0.85;0.74;0.56;4.51;4.50;4.48;4.32;3.59;0.64
66834;SPS30;53743;51.100;5.874;2023-03-14T00:21:23;0.64;0.60;0.52;0.39;3.15;3.15;3.13;3.02;2.50;0.64
66834;SPS30;53743;51.100;5.874;2023-03-14T00:22:23;0.79;0.74;0.64;0.48;3.87;3.86;3.84;3.70;3.06;0.65
66834;SPS30;53743;51.100;5.874;2023-03-14T00:23:26;0.86;0.80;0.69;0.52;4.19;4.18;4.15;4.01;3.31;0.65
66834;SPS30;53743;51.100;5.874;2023-03-14T00:24:27;1.03;0.96;0.83;0.63;5.04;5.03;5.00;4.82;3.99;0.65
66834;SPS30;53743;51.100;5.874;2023-03-14T00:25:29;1.10;1.02;0.88;0.68;5.42;5.41;5.37;5.19;4.30;0.64
66834;SPS30;53743;51.100;5.874;2023-03-14T00:26:29;0.96;0.90;0.77;0.59;4.73;4.73;4.70;4.54;3.76;0.64
66834;SPS30;53743;51.100;5.874;2023-03-14T00:27:31;1.15;1.07;0.92;0.70;5.59;5.58;5.54;5.35;4.42;0.65
66834;SPS30;53743;51.100;5.874;2023-03-14T00:28:32;0.94;0.88;0.75;0.57;4.57;4.56;4.53;4.37;3.60;0.65
66834;SPS30;53743;51.100;5.874;2023-03-14T00:29:34;1.10;1.02;0.87;0.66;5.25;5.25;5.21;5.02;4.13;0.65
66834;SPS30;53743;51.100;5.874;2023-03-14T00:30:36;1.41;1.31;1.11;0.82;6.55;6.54;6.49;6.23;5.10;0.66
66834;SPS30;53743;51.100;5.874;2023-03-14T00:31:38;1.06;0.98;0.82;0.60;4.77;4.77;4.73;4.52;3.68;0.67
66834;SPS30;53743;51.100;5.874;2023-03-14T00:32:44;1.32;1.21;1.01;0.72;5.75;5.74;5.69;5.43;4.37;0.68
66834;SPS30;53743;51.100;5.874;2023-03-14T00:33:45;0.99;0.91;0.76;0.54;4.34;4.33;4.29;4.10;3.31;0.67
66834;SPS30;53743;51.100;5.874;2023-03-14T00:34:47;1.18;1.08;0.89;0.63;5.06;5.06;5.01;4.77;3.83;0.69
66834;SPS30;53743;51.100;5.874;2023-03-14T00:35:54;0.98;0.90;0.74;0.52;4.17;4.16;4.12;3.92;3.13;0.69
66834;SPS30;53743;51.100;5.874;2023-03-14T00:36:57;1.34;1.23;1.01;0.72;5.73;5.72;5.67;5.40;4.33;0.69
66834;SPS30;53743;51.100;5.874;2023-03-14T00:37:58;0.94;0.86;0.71;0.51;4.07;4.07;4.03;3.84;3.09;0.68
66834;SPS30;53743;51.100;5.874;2023-03-14T00:38:59;0.84;0.78;0.65;0.46;3.70;3.69;3.66;3.49;2.82;0.68
66834;SPS30;53743;51.100;5.874;2023-03-14T00:40:00;0.97;0.90;0.75;0.53;4.28;4.27;4.24;4.04;3.26;0.68
66834;SPS30;53743;51.100;5.874;2023-03-14T00:41:02;1.00;0.92;0.77;0.56;4.46;4.46;4.42;4.22;3.42;0.68
66834;SPS30;53743;51.100;5.874;2023-03-14T00:42:04;0.90;0.84;0.71;0.52;4.15;4.14;4.11;3.94;3.21;0.67
66834;SPS30;53743;51.100;5.874;2023-03-14T00:43:06;0.78;0.73;0.62;0.46;3.65;3.64;3.62;3.47;2.84;0.66
66834;SPS30;53743;51.100;5.874;2023-03-14T00:44:06;1.00;0.93;0.79;0.59;4.72;4.71;4.68;4.50;3.69;0.66
66834;SPS30;53743;51.100;5.874;2023-03-14T00:45:08;0.97;0.90;0.77;0.57;4.56;4.55;4.52;4.34;3.56;0.66
66834;SPS30;53743;51.100;5.874;2023-03-14T00:46:10;1.33;1.23;1.04;0.77;6.19;6.18;6.13;5.89;4.82;0.66
66834;SPS30;53743;51.100;5.874;2023-03-14T00:47:12;0.74;0.69;0.59;0.43;3.48;3.48;3.45;3.32;2.72;0.66
66834;SPS30;53743;51.100;5.874;2023-03-14T00:48:14;0.97;0.90;0.76;0.55;4.43;4.42;4.39;4.20;3.42;0.67
66834;SPS30;53743;51.100;5.874;2023-03-14T00:49:16;0.80;0.74;0.62;0.45;3.58;3.57;3.54;3.39;2.75;0.67
66834;SPS30;53743;51.100;5.874;2023-03-14T00:50:17;0.93;0.86;0.72;0.52;4.20;4.20;4.16;3.98;3.24;0.66
66834;SPS30;53743;51.100;5.874;2023-03-14T00:51:20;0.92;0.85;0.72;0.52;4.18;4.18;4.15;3.97;3.23;0.66
66834;SPS30;53743;51.100;5.874;2023-03-14T00:52:20;1.19;1.10;0.93;0.68;5.48;5.47;5.43;5.20;4.24;0.66
66834;SPS30;53743;51.100;5.874;2023-03-14T00:53:22;0.92;0.85;0.72;0.53;4.21;4.20;4.17;4.00;3.26;0.67
66834;SPS30;53743;51.100;5.874;2023-03-14T00:54:23;0.91;0.85;0.72;0.53;4.25;4.25;4.22;4.05;3.31;0.65
66834;SPS30;53743;51.100;5.874;2023-03-14T00:55:25;1.19;1.11;0.95;0.71;5.72;5.71;5.67;5.46;4.50;0.64
66834;SPS30;53743;51.100;5.874;2023-03-14T00:56:26;1.10;1.02;0.87;0.66;5.28;5.27;5.23;5.04;4.15;0.64
66834;SPS30;53743;51.100;5.874;2023-03-14T00:57:28;1.25;1.16;1.00;0.75;6.02;6.01;5.97;5.75;4.75;0.64
66834;SPS30;53743;51.100;5.874;2023-03-14T00:58:29;1.33;1.24;1.06;0.80;6.41;6.40;6.36;6.12;5.05;0.64
66834;SPS30;53743;51.100;5.874;2023-03-14T00:59:30;1.53;1.42;1.21;0.91;7.30;7.29;7.24;6.97;5.73;0.65
66834;SPS30;53743;51.100;5.874;2023-03-14T01:00:32;0.97;0.90;0.77;0.57;4.59;4.58;4.55;4.38;3.59;0.65
66834;SPS30;53743;51.100;5.874;2023-03-14T01:01:34;1.68;1.56;1.32;0.98;7.84;7.83;7.77;7.46;6.11;0.66
66834;SPS30;53743;51.100;5.874;2023-03-14T01:02:35;1.46;1.35;1.13;0.82;6.54;6.53;6.48;6.19;5.02;0.68
66834;SPS30;53743;51.100;5.874;2023-03-14T01:03:38;1.28;1.18;0.98;0.70;5.62;5.61;5.57;5.31;4.28;0.68
66834;SPS30;53743;51.100;5.874;2023-03-14T01:04:39;1.28;1.18;0.98;0.70;5.62;5.61;5.57;5.31;4.29;0.69
66834;SPS30;53743;51.100;5.874;2023-03-14T01:05:43;1.55;1.42;1.18;0.85;6.79;6.78;6.72;6.41;5.17;0.70
66834;SPS30;53743;51.100;5.874;2023-03-14T01:06:44;1.43;1.32;1.11;0.80;6.40;6.39;6.34;6.06;4.91;0.69
66834;SPS30;53743;51.100;5.874;2023-03-14T01:07:45;1.51;1.40;1.17;0.84;6.75;6.73;6.68;6.38;5.17;0.69
66834;SPS30;53743;51.100;5.874;2023-03-14T01:08:47;1.62;1.49;1.25;0.91;7.30;7.29;7.23;6.92;5.62;0.68
66834;SPS30;53743;51.100;5.874;2023-03-14T01:09:51;1.19;1.11;0.94;0.70;5.58;5.57;5.53;5.31;4.35;0.67
66834;SPS30;53743;51.100;5.874;2023-03-14T01:10:52;1.32;1.22;1.04;0.76;6.13;6.12;6.07;5.83;4.77;0.67
66834;SPS30;53743;51.100;5.874;2023-03-14T01:11:54;1.40;1.30;1.10;0.81;6.49;6.48;6.43;6.17;5.05;0.68
66834;SPS30;53743;51.100;5.874;2023-03-14T01:12:55;1.10;1.02;0.86;0.64;5.13;5.12;5.08;4.88;4.00;0.68
66834;SPS30;53743;51.100;5.874;2023-03-14T01:13:57;1.67;1.55;1.31;0.97;7.75;7.73;7.68;7.37;6.02;0.68
66834;SPS30;53743;51.100;5.874;2023-03-14T01:14:58;1.97;1.82;1.53;1.12;8.95;8.94;8.87;8.49;6.91;0.69
66834;SPS30;53743;51.100;5.874;2023-03-14T01:16:00;1.32;1.22;1.03;0.76;6.12;6.11;6.06;5.82;4.76;0.68
66834;SPS30;53743;51.100;5.874;2023-03-14T01:17:02;1.37;1.28;1.10;0.84;6.69;6.68;6.64;6.40;5.29;0.66
66834;SPS30;53743;51.100;5.874;2023-03-14T01:18:04;1.51;1.41;1.21;0.92;7.40;7.39;7.34;7.08;5.86;0.66
66834;SPS30;53743;51.100;5.874;2023-03-14T01:19:06;1.57;1.47;1.26;0.96;7.65;7.64;7.59;7.32;6.04;0.67
66834;SPS30;53743;51.100;5.874;2023-03-14T01:20:09;1.28;1.19;1.01;0.76;6.07;6.06;6.02;5.79;4.75;0.68
66834;SPS30;53743;51.100;5.874;2023-03-14T01:21:13;1.18;1.09;0.92;0.68;5.47;5.46;5.42;5.20;4.26;0.69
66834;SPS30;53743;51.100;5.874;2023-03-14T01:22:17;1.33;1.23;1.04;0.77;6.19;6.18;6.14;5.90;4.83;0.69
66834;SPS30;53743;51.100;5.874;2023-03-14T01:23:18;1.29;1.20;1.01;0.74;5.93;5.92;5.88;5.63;4.59;0.69
66834;SPS30;53743;51.100;5.874;2023-03-14T01:24:19;1.08;0.99;0.84;0.61;4.89;4.88;4.85;4.64;3.78;0.69
66834;SPS30;53743;51.100;5.874;2023-03-14T01:25:21;1.28;1.19;0.99;0.72;5.79;5.78;5.73;5.48;4.45;0.70
66834;SPS30;53743;51.100;5.874;2023-03-14T01:26:24;1.61;1.49;1.25;0.91;7.27;7.26;7.20;6.89;5.60;0.70
66834;SPS30;53743;51.100;5.874;2023-03-14T01:27:27;1.58;1.46;1.23;0.89;7.15;7.14;7.08;6.78;5.51;0.69
66834;SPS30;53743;51.100;5.874;2023-03-14T01:28:29;1.69;1.56;1.32;0.97;7.80;7.78;7.73;7.41;6.05;0.69
66834;SPS30;53743;51.100;5.874;2023-03-14T01:29:30;1.27;1.18;1.00;0.74;5.90;5.89;5.85;5.61;4.59;0.69
66834;SPS30;53743;51.100;5.874;2023-03-14T01:30:32;1.23;1.14;0.96;0.71;5.66;5.66;5.61;5.38;4.39;0.69
66834;SPS30;53743;51.100;5.874;2023-03-14T01:31:33;1.77;1.63;1.37;0.99;7.95;7.94;7.87;7.53;6.12;0.70
66834;SPS30;53743;51.100;5.874;2023-03-14T01:32:35;1.83;1.69;1.41;1.02;8.21;8.19;8.13;7.77;6.30;0.69
66834;SPS30;53743;51.100;5.874;2023-03-14T01:33:37;1.55;1.42;1.19;0.85;6.83;6.82;6.76;6.46;5.22;0.69
66834;SPS30;53743;51.100;5.874;2023-03-14T01:34:42;1.79;1.65;1.38;1.00;8.00;7.99;7.93;7.58;6.14;0.69
66834;SPS30;53743;51.100;5.874;2023-03-14T01:35:43;1.56;1.43;1.19;0.85;6.81;6.79;6.74;6.42;5.18;0.69
66834;SPS30;53743;51.100;5.874;2023-03-14T01:36:44;1.46;1.34;1.11;0.78;6.29;6.28;6.22;5.92;4.75;0.70
66834;SPS30;53743;51.100;5.874;2023-03-14T01:37:46;1.46;1.34;1.10;0.77;6.18;6.17;6.12;5.81;4.64;0.70
66834;SPS30;53743;51.100;5.874;2023-03-14T01:38:52;1.57;1.44;1.19;0.84;6.69;6.68;6.62;6.29;5.04;0.69
66834;SPS30;53743;51.100;5.874;2023-03-14T01:39:54;1.65;1.51;1.25;0.89;7.13;7.11;7.05;6.71;5.40;0.69
66834;SPS30;53743;51.100;5.874;2023-03-14T01:40:55;2.02;1.86;1.53;1.07;8.61;8.59;8.52;8.09;6.48;0.70
66834;SPS30;53743;51.100;5.874;2023-03-14T01:41:57;1.81;1.66;1.36;0.95;7.59;7.58;7.51;7.12;5.68;0.71
66834;SPS30;53743;51.100;5.874;2023-03-14T01:43:05;1.87;1.71;1.40;0.97;7.81;7.80;7.73;7.33;5.84;0.71
66834;SPS30;53743;51.100;5.874;2023-03-14T01:44:14;1.78;1.63;1.34;0.94;7.51;7.49;7.42;7.05;5.63;0.70
66834;SPS30;53743;51.100;5.874;2023-03-14T01:46:53;1.22;1.12;0.92;0.66;5.25;5.25;5.20;4.95;3.98;0.68
66834;SPS30;53743;51.100;5.874;2023-03-14T01:47:54;1.43;1.31;1.08;0.77;6.15;6.14;6.09;5.79;4.66;0.68
66834;SPS30;53743;51.100;5.874;2023-03-14T01:49:00;1.55;1.42;1.17;0.81;6.52;6.51;6.45;6.12;4.89;0.69
66834;SPS30;53743;51.100;5.874;2023-03-14T01:50:08;1.33;1.22;1.00;0.69;5.57;5.56;5.50;5.22;4.16;0.69
66834;SPS30;53743;51.100;5.874;2023-03-14T01:51:14;1.73;1.59;1.30;0.91;7.28;7.27;7.20;6.83;5.45;0.70
66834;SPS30;53743;51.100;5.874;2023-03-14T01:52:21;1.58;1.44;1.17;0.80;6.45;6.43;6.37;6.02;4.77;0.71
66834;SPS30;53743;51.100;5.874;2023-03-14T01:53:29;1.41;1.28;1.04;0.70;5.60;5.59;5.53;5.21;4.09;0.72
66834;SPS30;53743;51.100;5.874;2023-03-14T01:54:31;1.49;1.36;1.10;0.74;5.91;5.90;5.84;5.50;4.31;0.72
66834;SPS30;53743;51.100;5.874;2023-03-14T01:55:37;1.67;1.52;1.24;0.85;6.84;6.83;6.76;6.40;5.07;0.71
66834;SPS30;53743;51.100;5.874;2023-03-14T01:56:39;1.16;1.06;0.87;0.60;4.80;4.79;4.74;4.49;3.57;0.70
66834;SPS30;53743;51.100;5.874;2023-03-14T01:57:45;1.62;1.48;1.21;0.83;6.65;6.63;6.57;6.21;4.92;0.71
66834;SPS30;53743;51.100;5.874;2023-03-14T01:58:52;1.75;1.60;1.31;0.90;7.22;7.20;7.13;6.75;5.36;0.71
66834;SPS30;53743;51.100;5.874;2023-03-14T01:59:55;0.95;0.87;0.71;0.50;3.97;3.96;3.93;3.72;2.96;0.71
66834;SPS30;53743;51.100;5.874;2023-03-14T02:01:02;1.48;1.36;1.11;0.78;6.21;6.20;6.14;5.83;4.65;0.71
66834;SPS30;53743;51.100;5.874;2023-03-14T02:02:04;1.89;1.72;1.40;0.97;7.74;7.73;7.65;7.24;5.74;0.72
66834;SPS30;53743;51.100;5.874;2023-03-14T02:03:09;1.76;1.60;1.30;0.88;7.04;7.03;6.96;6.56;5.17;0.73
66834;SPS30;53743;51.100;5.874;2023-03-14T02:04:14;1.60;1.46;1.18;0.80;6.39;6.38;6.31;5.95;4.68;0.74
66834;SPS30;53743;51.100;5.874;2023-03-14T02:05:22;1.79;1.63;1.31;0.87;7.02;7.00;6.93;6.52;5.10;0.75
66834;SPS30;53743;51.100;5.874;2023-03-14T02:06:38;1.46;1.33;1.08;0.73;5.85;5.84;5.78;5.45;4.29;0.73
66834;SPS30;53743;51.100;5.874;2023-03-14T02:07:49;1.22;1.11;0.90;0.60;4.83;4.82;4.76;4.49;3.52;0.75
66834;SPS30;53743;51.100;5.874;2023-03-14T02:08:56;1.47;1.34;1.07;0.72;5.75;5.73;5.67;5.33;4.17;0.76
66834;SPS30;53743;51.100;5.874;2023-03-14T02:10:00;1.44;1.31;1.05;0.70;5.64;5.63;5.57;5.24;4.10;0.75
66834;SPS30;53743;51.100;5.874;2023-03-14T02:11:06;1.42;1.30;1.05;0.71;5.71;5.70;5.64;5.32;4.19;0.75
66834;SPS30;53743;51.100;5.874;2023-03-14T02:12:19;1.59;1.45;1.18;0.80;6.43;6.42;6.35;6.00;4.73;0.75
66834;SPS30;53743;51.100;5.874;2023-03-14T02:13:48;1.53;1.39;1.13;0.77;6.17;6.16;6.09;5.76;4.54;0.75
66834;SPS30;53743;51.100;5.874;2023-03-14T02:15:09;1.77;1.61;1.31;0.90;7.18;7.17;7.10;6.71;5.30;0.75
66834;SPS30;53743;51.100;5.874;2023-03-14T02:16:31;2.25;2.05;1.67;1.15;9.24;9.22;9.13;8.64;6.86;0.73
66834;SPS30;53743;51.100;5.874;2023-03-14T02:17:51;1.53;1.40;1.16;0.82;6.56;6.55;6.49;6.18;4.96;0.71
66834;SPS30;53743;51.100;5.874;2023-03-14T02:19:18;1.30;1.19;0.98;0.68;5.46;5.45;5.40;5.13;4.10;0.72
66834;SPS30;53743;51.100;5.874;2023-03-14T02:20:42;1.37;1.25;1.02;0.71;5.68;5.67;5.61;5.32;4.23;0.73
66834;SPS30;53743;51.100;5.874;2023-03-14T02:21:53;1.69;1.54;1.25;0.85;6.81;6.79;6.73;6.35;5.01;0.75
66834;SPS30;53743;51.100;5.874;2023-03-14T02:23:08;1.90;1.73;1.40;0.95;7.61;7.60;7.52;7.09;5.58;0.75
66834;SPS30;53743;51.100;5.874;2023-03-14T02:24:12;1.63;1.49;1.20;0.81;6.51;6.50;6.43;6.06;4.77;0.75
66834;SPS30;53743;51.100;5.874;2023-03-14T02:25:27;1.98;1.80;1.47;1.00;8.05;8.03;7.95;7.52;5.95;0.74
66834;SPS30;53743;51.100;5.874;2023-03-14T02:26:42;1.74;1.58;1.28;0.87;7.01;6.99;6.92;6.54;5.16;0.75
66834;SPS30;53743;51.100;5.874;2023-03-14T02:28:14;2.38;2.08;1.49;0.73;5.89;5.87;5.73;4.97;3.15;1.02
66834;SPS30;53743;51.100;5.874;2023-03-14T02:29:16;2.60;2.28;1.67;0.88;7.12;7.09;6.95;6.17;4.17;0.98
66834;SPS30;53743;51.100;5.874;2023-03-14T02:30:19;1.99;1.76;1.31;0.73;5.88;5.86;5.75;5.18;3.64;0.93
66834;SPS30;53743;51.100;5.874;2023-03-14T02:31:23;1.65;1.46;1.09;0.60;4.86;4.84;4.76;4.28;3.01;0.91
66834;SPS30;53743;51.100;5.874;2023-03-14T02:32:24;2.80;2.47;1.83;0.99;8.01;7.98;7.82;7.00;4.84;0.93
66834;SPS30;53743;51.100;5.874;2023-03-14T02:33:29;2.77;2.45;1.81;0.99;7.99;7.96;7.81;7.00;4.86;0.92
66834;SPS30;53743;51.100;5.874;2023-03-14T02:34:29;2.82;2.49;1.85;1.03;8.27;8.24;8.09;7.27;5.09;0.91
66834;SPS30;53743;51.100;5.874;2023-03-14T02:35:34;2.26;2.00;1.50;0.84;6.75;6.73;6.61;5.97;4.22;0.90
66834;SPS30;53743;51.100;5.874;2023-03-14T02:36:40;2.10;1.86;1.39;0.78;6.30;6.28;6.17;5.57;3.95;0.90
66834;SPS30;53743;51.100;5.874;2023-03-14T02:37:42;2.19;1.94;1.45;0.82;6.57;6.54;6.43;5.80;4.10;0.90
66834;SPS30;53743;51.100;5.874;2023-03-14T02:38:50;2.21;1.95;1.45;0.80;6.44;6.41;6.30;5.65;3.95;0.91
66834;SPS30;53743;51.100;5.874;2023-03-14T02:40:00;1.79;1.58;1.18;0.66;5.33;5.31;5.21;4.70;3.31;0.90
66834;SPS30;53743;51.100;5.874;2023-03-14T02:41:05;2.49;2.20;1.65;0.92;7.42;7.39;7.26;6.55;4.62;0.90
66834;SPS30;53743;51.100;5.874;2023-03-14T02:42:12;1.82;1.61;1.21;0.69;5.52;5.50;5.41;4.89;3.48;0.89
66834;SPS30;53743;51.100;5.874;2023-03-14T02:43:15;2.56;2.27;1.70;0.96;7.72;7.69;7.56;6.83;4.84;0.89
66834;SPS30;53743;51.100;5.874;2023-03-14T02:44:22;2.47;2.19;1.64;0.92;7.39;7.37;7.24;6.53;4.61;0.90
66834;SPS30;53743;51.100;5.874;2023-03-14T02:45:35;2.10;1.86;1.40;0.79;6.36;6.34;6.23;5.64;4.01;0.89
66834;SPS30;53743;51.100;5.874;2023-03-14T02:46:38;2.41;2.14;1.62;0.93;7.50;7.47;7.35;6.68;4.81;0.88
66834;SPS30;53743;51.100;5.874;2023-03-14T02:47:42;1.88;1.67;1.27;0.74;5.96;5.94;5.85;5.33;3.87;0.86
66834;SPS30;53743;51.100;5.874;2023-03-14T02:48:48;1.66;1.48;1.13;0.66;5.34;5.33;5.24;4.79;3.49;0.86
66834;SPS30;53743;51.100;5.874;2023-03-14T02:49:56;2.68;2.39;1.83;1.09;8.75;8.73;8.60;7.88;5.79;0.85
66834;SPS30;53743;51.100;5.874;2023-03-14T02:51:02;1.79;1.60;1.23;0.74;5.94;5.92;5.84;5.36;3.96;0.84
66834;SPS30;53743;51.100;5.874;2023-03-14T02:52:04;2.25;2.01;1.55;0.94;7.55;7.52;7.42;6.82;5.07;0.83
66834;SPS30;53743;51.100;5.874;2023-03-14T02:53:06;2.95;2.64;2.04;1.24;9.98;9.96;9.81;9.04;6.74;0.84
66834;SPS30;53743;51.100;5.874;2023-03-14T02:54:08;2.37;2.12;1.64;1.01;8.09;8.06;7.95;7.34;5.48;0.83
66834;SPS30;53743;51.100;5.874;2023-03-14T02:55:09;2.51;2.25;1.73;1.06;8.51;8.48;8.36;7.71;5.75;0.83
66834;SPS30;53743;51.100;5.874;2023-03-14T02:56:14;1.94;1.74;1.34;0.82;6.56;6.54;6.45;5.94;4.42;0.83
66834;SPS30;53743;51.100;5.874;2023-03-14T02:57:15;1.82;1.63;1.26;0.77;6.18;6.16;6.07;5.60;4.18;0.83
66834;SPS30;53743;51.100;5.874;2023-03-14T02:58:18;2.15;1.92;1.48;0.90;7.25;7.23;7.13;6.57;4.89;0.82
66834;SPS30;53743;51.100;5.874;2023-03-14T02:59:22;2.17;1.95;1.52;0.94;7.57;7.55;7.44;6.89;5.18;0.81
66834;SPS30;53743;51.100;5.874;2023-03-14T03:00:29;2.02;1.82;1.41;0.87;7.01;6.99;6.90;6.38;4.79;0.82
66834;SPS30;53743;51.100;5.874;2023-03-14T03:01:31;2.10;1.89;1.47;0.90;7.27;7.25;7.15;6.60;4.96;0.82
66834;SPS30;53743;51.100;5.874;2023-03-14T03:02:33;2.15;1.92;1.49;0.91;7.27;7.25;7.15;6.59;4.91;0.83
66834;SPS30;53743;51.100;5.874;2023-03-14T03:03:34;2.69;2.41;1.87;1.14;9.19;9.17;9.04;8.34;6.23;0.82
66834;SPS30;53743;51.100;5.874;2023-03-14T03:04:35;2.93;2.63;2.02;1.22;9.82;9.79;9.65;8.88;6.58;0.82
66834;SPS30;53743;51.100;5.874;2023-03-14T03:05:36;2.69;2.41;1.85;1.11;8.93;8.91;8.78;8.06;5.96;0.83
66834;SPS30;53743;51.100;5.874;2023-03-14T03:06:39;2.61;2.33;1.79;1.07;8.58;8.56;8.43;7.73;5.69;0.84
66834;SPS30;53743;51.100;5.874;2023-03-14T03:07:40;2.84;2.53;1.94;1.16;9.35;9.32;9.18;8.42;6.21;0.83
66834;SPS30;53743;51.100;5.874;2023-03-14T03:08:43;3.27;2.92;2.25;1.36;10.92;10.89;10.73;9.87;7.31;0.82
66834;SPS30;53743;51.100;5.874;2023-03-14T03:09:44;2.63;2.35;1.79;1.07;8.58;8.55;8.42;7.72;5.66;0.84
66834;SPS30;53743;51.100;5.874;2023-03-14T03:10:46;2.50;2.23;1.70;1.01;8.10;8.08;7.95;7.27;5.32;0.85
66834;SPS30;53743;51.100;5.874;2023-03-14T03:11:47;3.22;2.87;2.19;1.29;10.39;10.36;10.20;9.33;6.82;0.85
66834;SPS30;53743;51.100;5.874;2023-03-14T03:12:53;3.01;2.68;2.05;1.22;9.83;9.80;9.65;8.84;6.50;0.83
66834;SPS30;53743;51.100;5.874;2023-03-14T03:13:59;2.71;2.42;1.86;1.11;8.92;8.89;8.76;8.03;5.92;0.83
66834;SPS30;53743;51.100;5.874;2023-03-14T03:15:02;2.24;2.00;1.52;0.90;7.23;7.20;7.09;6.48;4.74;0.85
66834;SPS30;53743;51.100;5.874;2023-03-14T03:16:08;2.04;1.82;1.39;0.82;6.61;6.59;6.49;5.93;4.34;0.84
66834;SPS30;53743;51.100;5.874;2023-03-14T03:17:10;2.30;2.05;1.56;0.92;7.41;7.39;7.28;6.65;4.86;0.85
66834;SPS30;53743;51.100;5.874;2023-03-14T03:18:12;2.31;2.05;1.55;0.90;7.26;7.24;7.12;6.48;4.69;0.86
66834;SPS30;53743;51.100;5.874;2023-03-14T03:19:16;1.67;1.48;1.12;0.64;5.18;5.16;5.08;4.61;3.31;0.87
66834;SPS30;53743;51.100;5.874;2023-03-14T03:20:18;2.26;2.01;1.52;0.87;7.03;7.00;6.89;6.26;4.50;0.87
66834;SPS30;53743;51.100;5.874;2023-03-14T03:21:19;2.39;2.12;1.61;0.93;7.46;7.44;7.32;6.66;4.80;0.86
66834;SPS30;53743;51.100;5.874;2023-03-14T03:22:23;2.30;2.05;1.56;0.91;7.32;7.30;7.18;6.55;4.76;0.85
66834;SPS30;53743;51.100;5.874;2023-03-14T03:23:25;2.06;1.83;1.40;0.82;6.60;6.58;6.47;5.91;4.31;0.85
66834;SPS30;53743;51.100;5.874;2023-03-14T03:24:26;2.90;2.58;1.97;1.16;9.30;9.28;9.13;8.34;6.08;0.85
66834;SPS30;53743;51.100;5.874;2023-03-14T03:25:29;2.68;2.39;1.83;1.09;8.77;8.74;8.61;7.89;5.80;0.84
66834;SPS30;53743;51.100;5.874;2023-03-14T03:26:30;2.50;2.23;1.71;1.03;8.24;8.22;8.10;7.43;5.48;0.84
66834;SPS30;53743;51.100;5.874;2023-03-14T03:27:32;2.48;2.21;1.69;1.00;8.06;8.04;7.92;7.25;5.32;0.84
66834;SPS30;53743;51.100;5.874;2023-03-14T03:28:35;2.75;2.46;1.89;1.15;9.22;9.19;9.06;8.33;6.19;0.82
66834;SPS30;53743;51.100;5.874;2023-03-14T03:29:38;3.09;2.77;2.14;1.30;10.42;10.39;10.24;9.43;7.01;0.82
66834;SPS30;53743;51.100;5.874;2023-03-14T03:30:39;2.46;2.21;1.71;1.05;8.47;8.44;8.33;7.69;5.76;0.81
66834;SPS30;53743;51.100;5.874;2023-03-14T03:31:42;3.04;2.72;2.11;1.29;10.36;10.34;10.19;9.40;7.03;0.81
66834;SPS30;53743;51.100;5.874;2023-03-14T03:32:45;2.10;1.88;1.46;0.90;7.24;7.22;7.12;6.58;4.93;0.81
66834;SPS30;53743;51.100;5.874;2023-03-14T03:33:47;2.18;1.96;1.52;0.95;7.62;7.60;7.50;6.95;5.24;0.80
66834;SPS30;53743;51.100;5.874;2023-03-14T03:34:48;2.30;2.07;1.62;1.02;8.20;8.18;8.08;7.50;5.69;0.80
66834;SPS30;53743;51.100;5.874;2023-03-14T03:35:50;1.74;1.56;1.22;0.76;6.10;6.09;6.01;5.57;4.21;0.81
66834;SPS30;53743;51.100;5.874;2023-03-14T03:36:58;1.81;1.63;1.27;0.79;6.35;6.33;6.25;5.78;4.36;0.81
66834;SPS30;53743;51.100;5.874;2023-03-14T03:38:02;2.04;1.83;1.42;0.88;7.07;7.05;6.96;6.44;4.84;0.81
66834;SPS30;53743;51.100;5.874;2023-03-14T03:39:04;2.29;2.05;1.60;0.99;7.98;7.96;7.85;7.27;5.48;0.80
66834;SPS30;53743;51.100;5.874;2023-03-14T03:40:07;2.14;1.92;1.50;0.93;7.47;7.45;7.35;6.80;5.12;0.80
66834;SPS30;53743;51.100;5.874;2023-03-14T03:41:10;2.16;1.94;1.50;0.92;7.41;7.39;7.29;6.72;5.03;0.82
66834;SPS30;53743;51.100;5.874;2023-03-14T03:42:12;1.89;1.70;1.32;0.82;6.56;6.54;6.45;5.96;4.48;0.80
66834;SPS30;53743;51.100;5.874;2023-03-14T03:43:13;2.55;2.29;1.78;1.11;8.89;8.87;8.75;8.10;6.10;0.79
66834;SPS30;53743;51.100;5.874;2023-03-14T03:44:18;1.98;1.78;1.39;0.88;7.05;7.03;6.94;6.44;4.89;0.78
66834;SPS30;53743;51.100;5.874;2023-03-14T03:45:20;2.53;2.28;1.78;1.11;8.93;8.91;8.79;8.15;6.16;0.79
66834;SPS30;53743;51.100;5.874;2023-03-14T03:46:26;2.08;1.86;1.45;0.90;7.24;7.22;7.12;6.59;4.96;0.80
66834;SPS30;53743;51.100;5.874;2023-03-14T03:47:27;1.98;1.77;1.36;0.83;6.64;6.62;6.52;6.00;4.45;0.82
66834;SPS30;53743;51.100;5.874;2023-03-14T03:48:30;1.99;1.78;1.36;0.81;6.55;6.53;6.43;5.90;4.35;0.82
66834;SPS30;53743;51.100;5.874;2023-03-14T03:49:32;2.52;2.26;1.73;1.04;8.33;8.31;8.18;7.51;5.54;0.82
66834;SPS30;53743;51.100;5.874;2023-03-14T03:50:33;2.01;1.79;1.38;0.83;6.70;6.68;6.58;6.05;4.48;0.81
66834;SPS30;53743;51.100;5.874;2023-03-14T03:51:35;1.79;1.60;1.23;0.75;5.99;5.97;5.89;5.42;4.02;0.81
66834;SPS30;53743;51.100;5.874;2023-03-14T03:52:36;1.62;1.45;1.12;0.69;5.51;5.50;5.42;5.00;3.73;0.80
66834;SPS30;53743;51.100;5.874;2023-03-14T03:53:38;1.82;1.63;1.26;0.77;6.17;6.15;6.06;5.59;4.16;0.80
66834;SPS30;53743;51.100;5.874;2023-03-14T03:54:43;1.39;1.25;0.96;0.58;4.65;4.64;4.57;4.20;3.11;0.82
66834;SPS30;53743;51.100;5.874;2023-03-14T03:55:45;0.94;0.84;0.65;0.39;3.15;3.14;3.09;2.85;2.11;0.82
66834;SPS30;53743;51.100;5.874;2023-03-14T03:56:46;1.34;1.20;0.92;0.56;4.52;4.51;4.44;4.09;3.04;0.81
66834;SPS30;53743;51.100;5.874;2023-03-14T03:57:47;1.52;1.36;1.05;0.64;5.17;5.15;5.08;4.69;3.50;0.82
66834;SPS30;53743;51.100;5.874;2023-03-14T03:58:48;1.47;1.31;1.02;0.62;5.00;4.98;4.91;4.53;3.38;0.82
66834;SPS30;53743;51.100;5.874;2023-03-14T03:59:51;1.27;1.14;0.89;0.55;4.43;4.42;4.36;4.04;3.04;0.81
66834;SPS30;53743;51.100;5.874;2023-03-14T04:00:53;0.96;0.86;0.68;0.42;3.40;3.40;3.35;3.11;2.36;0.80
66834;SPS30;53743;51.100;5.874;2023-03-14T04:01:55;0.94;0.84;0.65;0.40;3.24;3.24;3.19;2.95;2.22;0.81
66834;SPS30;53743;51.100;5.874;2023-03-14T04:02:56;0.95;0.86;0.66;0.41;3.27;3.26;3.21;2.96;2.22;0.82
66834;SPS30;53743;51.100;5.874;2023-03-14T04:03:58;0.56;0.50;0.39;0.24;1.94;1.94;1.91;1.77;1.33;0.81
66834;SPS30;53743;51.100;5.874;2023-03-14T04:04:59;0.58;0.52;0.41;0.25;2.04;2.04;2.01;1.86;1.41;0.80
66834;SPS30;53743;51.100;5.874;2023-03-14T04:06:02;0.82;0.74;0.58;0.36;2.93;2.92;2.88;2.68;2.03;0.79
66834;SPS30;53743;51.100;5.874;2023-03-14T04:07:07;1.11;1.00;0.78;0.49;3.96;3.95;3.90;3.62;2.75;0.79
66834;SPS30;53743;51.100;5.874;2023-03-14T04:08:10;0.82;0.74;0.58;0.37;2.99;2.98;2.95;2.74;2.09;0.79
66834;SPS30;53743;51.100;5.874;2023-03-14T04:09:11;0.84;0.76;0.61;0.39;3.15;3.14;3.10;2.90;2.23;0.77
66834;SPS30;53743;51.100;5.874;2023-03-14T04:10:20;0.82;0.74;0.59;0.38;3.05;3.05;3.01;2.81;2.17;0.77
66834;SPS30;53743;51.100;5.874;2023-03-14T04:11:35;0.89;0.81;0.64;0.42;3.39;3.38;3.34;3.13;2.43;0.76
66834;SPS30;53743;51.100;5.874;2023-03-14T04:12:55;0.66;0.60;0.48;0.32;2.55;2.54;2.51;2.36;1.84;0.75